Time;durP1;ratioP1;P1;durP2;ratioP2;P2;SDS_P1;SDS_P2;PMS_P1;PMS_P2;Temp;Humidity;BMP_temperature;BMP_pressure;BME280_temperature;BME280_humidity;BME280_pressure;Samples;Min_cycle;Max_cycle;Signal;HPM_P1;HPM_P2
2022/04/16 00:00:11;;;;;;;3.40;2.37;;;;;;;-145.69;100.00;73034.41;5074545;28;20203;-75
2022/04/16 00:02:38;;;;;;;5.30;2.63;;;;;;;-145.69;100.00;73054.31;5074731;28;20207;-75
2022/04/16 00:05:05;;;;;;;4.07;2.60;;;;;;;-145.69;100.00;73054.31;5074757;28;20570;-75
2022/04/16 00:07:32;;;;;;;4.90;3.00;;;;;;;-145.69;100.00;73026.44;5073692;28;20230;-75
2022/04/16 00:09:59;;;;;;;3.90;2.60;;;;;;;-145.69;100.00;73014.50;5074023;28;20293;-75
2022/04/16 00:12:28;;;;;;;9.40;3.17;;;;;;;-145.69;100.00;72998.59;5074704;28;20206;-75
2022/04/16 00:14:58;;;;;;;6.13;2.93;;;;;;;-145.69;100.00;73002.56;5074334;28;20282;-76
2022/04/16 00:17:25;;;;;;;5.60;2.80;;;;;;;-145.69;100.00;73028.44;5074379;28;20268;-75
2022/04/16 00:19:51;;;;;;;6.27;2.90;;;;;;;-145.69;100.00;73044.38;5074241;28;20293;-75
2022/04/16 00:22:18;;;;;;;7.10;2.90;;;;;;;-145.69;100.00;73062.28;5073897;28;20206;-75
2022/04/16 00:24:46;;;;;;;4.73;2.40;;;;;;;-145.69;100.00;73066.25;5073653;28;20231;-75
2022/04/16 00:27:13;;;;;;;5.97;2.80;;;;;;;-145.69;100.00;73066.25;5074069;28;20660;-75
2022/04/16 00:29:40;;;;;;;5.03;2.47;;;;;;;-145.69;100.00;73082.19;5073685;28;20203;-75
2022/04/16 00:32:08;;;;;;;9.73;2.27;;;;;;;-145.69;100.00;73078.22;5064681;28;20211;-75
2022/04/16 00:34:36;;;;;;;5.03;2.80;;;;;;;-145.69;100.00;73098.13;5054145;28;20207;-75
2022/04/16 00:37:03;;;;;;;5.40;2.93;;;;;;;-145.69;100.00;73102.09;5053936;28;20204;-76
2022/04/16 00:39:30;;;;;;;9.23;3.30;;;;;;;-145.69;100.00;73122.00;5053654;28;20221;-75
2022/04/16 00:41:57;;;;;;;7.03;3.30;;;;;;;-145.69;100.00;73116.03;5054063;28;20195;-75
2022/04/16 00:44:25;;;;;;;11.55;4.68;;;;;;;-145.69;100.00;73078.22;5053051;28;20513;-75
2022/04/16 00:46:53;;;;;;;7.37;3.23;;;;;;;-145.69;100.00;73074.22;5053798;28;20278;-75
2022/04/16 00:49:19;;;;;;;8.30;3.13;;;;;;;-145.69;100.00;73090.16;5053603;28;20758;-75
2022/04/16 00:51:49;;;;;;;6.63;3.43;;;;;;;-145.69;100.00;73106.09;5053665;28;20681;-75
2022/04/16 00:54:18;;;;;;;4.60;2.90;;;;;;;-145.69;100.00;73106.09;5053798;28;20211;-75
2022/04/16 00:56:44;;;;;;;4.27;2.87;;;;;;;-145.69;100.00;73131.97;5053568;28;20215;-75
2022/04/16 00:59:11;;;;;;;4.87;3.07;;;;;;;-145.69;100.00;73141.91;5053216;28;20558;-75
2022/04/16 01:01:37;;;;;;;4.17;2.80;;;;;;;-145.69;100.00;73133.94;5057309;28;20191;-75
2022/04/16 01:04:05;;;;;;;5.43;3.20;;;;;;;-145.69;100.00;73124.00;5073412;28;20206;-76
2022/04/16 01:06:38;;;;;;;5.63;3.57;;;;;;;-145.69;100.00;73139.91;5073395;28;20215;-75
2022/04/16 01:09:05;;;;;;;5.00;3.07;;;;;;;-145.69;100.00;73129.97;5073429;28;20210;-75
2022/04/16 01:11:33;;;;;;;7.57;4.07;;;;;;;-145.69;100.00;73086.19;5072794;28;20210;-76
2022/04/16 01:14:00;;;;;;;5.77;3.70;;;;;;;-145.69;100.00;73062.28;5073159;28;20276;-75
2022/04/16 01:16:28;;;;;;;7.23;3.50;;;;;;;-145.69;100.00;73052.34;5073064;28;20252;-75
2022/04/16 01:18:55;;;;;;;12.43;3.93;;;;;;;-145.69;100.00;73024.47;5073364;28;20620;-76
2022/04/16 01:21:23;;;;;;;6.60;3.70;;;;;;;-145.69;100.00;73020.47;5073381;28;20199;-75
2022/04/16 01:23:51;;;;;;;10.03;4.50;;;;;;;-145.69;100.00;73010.53;5073335;28;20593;-75
2022/04/16 01:26:17;;;;;;;6.70;4.27;;;;;;;-145.69;100.00;73006.53;5072528;28;20559;-75
2022/04/16 01:28:44;;;;;;;7.93;3.57;;;;;;;-145.69;100.00;72984.66;5073225;28;20252;-75
2022/04/16 01:31:10;;;;;;;5.83;3.53;;;;;;;-145.69;100.00;72982.66;5073121;28;20237;-75
2022/04/16 01:33:37;;;;;;;13.87;3.80;;;;;;;-145.69;100.00;72982.66;5073360;28;20199;-75
2022/04/16 01:36:04;;;;;;;4.50;2.80;;;;;;;-145.69;100.00;72996.59;5073220;28;20207;-75
2022/04/16 01:38:30;;;;;;;6.20;2.87;;;;;;;-145.69;100.00;73006.53;5072934;28;20209;-75
2022/04/16 01:40:59;;;;;;;7.80;3.23;;;;;;;-145.69;100.00;72998.59;5072762;28;20233;-75
2022/04/16 01:43:26;;;;;;;5.50;3.47;;;;;;;-145.69;100.00;73002.56;5072668;28;20198;-75
2022/04/16 01:45:53;;;;;;;5.03;2.83;;;;;;;-145.69;100.00;73014.50;5072499;28;20210;-75
2022/04/16 01:48:21;;;;;;;4.73;2.97;;;;;;;-145.69;100.00;73022.47;5072990;28;20198;-75
2022/04/16 01:50:48;;;;;;;7.93;3.47;;;;;;;-145.69;100.00;73020.47;5072922;28;20557;-75
2022/04/16 01:53:16;;;;;;;7.07;3.90;;;;;;;-145.69;100.00;73034.41;5072953;28;20294;-75
2022/04/16 01:55:43;;;;;;;7.53;3.40;;;;;;;-145.69;100.00;73026.44;5072796;28;20622;-75
2022/04/16 01:58:11;;;;;;;6.17;3.77;;;;;;;-145.69;100.00;73030.44;5072379;28;20206;-75
2022/04/16 02:00:39;;;;;;;6.67;3.93;;;;;;;-145.69;100.00;73022.47;5072536;28;20195;-75
2022/04/16 02:03:08;;;;;;;8.27;3.73;;;;;;;-145.69;100.00;73022.47;5072886;28;20198;-75
2022/04/16 02:05:35;;;;;;;8.70;4.13;;;;;;;-145.69;100.00;73008.53;5072514;28;20198;-75
2022/04/16 02:08:02;;;;;;;9.23;3.70;;;;;;;-145.69;100.00;73010.53;5072600;28;20226;-74
2022/04/16 02:10:28;;;;;;;5.77;3.60;;;;;;;-145.69;100.00;73010.53;5072510;28;20203;-75
2022/04/16 02:12:55;;;;;;;8.50;4.23;;;;;;;-145.69;100.00;73014.50;5072104;28;20198;-75
2022/04/16 02:15:22;;;;;;;6.73;3.80;;;;;;;-145.69;100.00;73032.44;5072527;28;20249;-75
2022/04/16 02:17:49;;;;;;;8.33;4.30;;;;;;;-145.69;100.00;73036.41;5072355;28;20195;-75
2022/04/16 02:20:15;;;;;;;6.73;3.57;;;;;;;-145.69;100.00;73038.41;5072422;28;20206;-75
2022/04/16 02:22:43;;;;;;;5.07;3.27;;;;;;;-145.69;100.00;73046.34;5072352;28;20198;-75
2022/04/16 02:25:10;;;;;;;7.38;4.88;;;;;;;-145.69;100.00;73042.38;5071105;28;20976;-75
2022/04/16 02:27:37;;;;;;;10.20;4.80;;;;;;;-145.69;100.00;73034.41;5072154;28;20333;-75
2022/04/16 02:30:05;;;;;;;10.53;4.90;;;;;;;-145.69;100.00;73042.38;5074726;28;20203;-75
2022/04/16 02:32:34;;;;;;;10.77;4.80;;;;;;;-145.69;100.00;73020.47;5076223;28;20253;-75
2022/04/16 02:35:01;;;;;;;11.07;4.90;;;;;;;-145.69;100.00;73018.50;5072669;28;20226;-75
2022/04/16 02:37:27;;;;;;;10.30;4.70;;;;;;;-145.69;100.00;73030.44;5056260;28;20211;-74
2022/04/16 02:39:54;;;;;;;8.97;4.13;;;;;;;-145.69;100.00;73018.50;5055847;28;20199;-75
2022/04/16 02:42:21;;;;;;;7.60;4.57;;;;;;;-145.69;100.00;73034.41;5056044;28;20808;-75
2022/04/16 02:47:33;;;;;;;12.47;5.30;;;;;;;-145.69;100.00;73054.31;5056143;28;20226;-75
2022/04/16 02:50:00;;;;;;;10.97;5.70;;;;;;;-145.69;100.00;73038.41;5055949;28;20207;-75
2022/04/16 02:52:26;;;;;;;14.80;7.17;;;;;;;-145.69;100.00;73018.50;5070360;28;20676;-76
2022/04/16 02:54:53;;;;;;;24.53;8.83;;;;;;;-145.69;100.00;73010.53;5076052;28;20199;-75
2022/04/16 02:57:20;;;;;;;17.07;7.73;;;;;;;-145.69;100.00;72998.59;5076061;28;20290;-75
2022/04/16 02:59:47;;;;;;;27.30;11.17;;;;;;;-145.69;100.00;72960.75;5075878;28;20256;-75
2022/04/16 03:02:14;;;;;;;20.60;9.70;;;;;;;-145.69;100.00;72946.81;5075831;28;20206;-75
2022/04/16 03:04:42;;;;;;;24.63;11.33;;;;;;;-145.69;100.00;72926.91;5075794;28;20206;-75
2022/04/16 03:07:08;;;;;;;24.43;10.77;;;;;;;-145.69;100.00;72909.00;5075598;28;20234;-75
2022/04/16 03:09:35;;;;;;;20.80;10.47;;;;;;;-145.69;100.00;72897.06;5075836;28;20207;-75
2022/04/16 03:12:02;;;;;;;23.93;11.10;;;;;;;-145.69;100.00;72887.09;5075813;28;20199;-75
2022/04/16 03:19:58;;;;;;;28.23;11.50;;;;;;;-145.69;100.00;72837.34;5075538;28;20331;-75
2022/04/16 03:22:24;;;;;;;17.53;9.07;;;;;;;-145.69;100.00;72837.34;5075363;28;20198;-75
2022/04/16 03:24:51;;;;;;;21.20;10.40;;;;;;;-145.69;100.00;72851.28;5075369;28;20202;-75
2022/04/16 03:27:18;;;;;;;20.53;10.33;;;;;;;-145.69;100.00;72877.16;5075195;28;20226;-75
2022/04/16 03:29:44;;;;;;;17.33;9.77;;;;;;;-145.69;100.00;72891.09;5075287;28;20558;-75
2022/04/16 03:32:10;;;;;;;18.20;9.23;;;;;;;-145.69;100.00;72916.97;5075102;28;20676;-75
2022/04/16 03:34:37;;;;;;;19.20;9.30;;;;;;;-145.69;100.00;72930.91;5075344;28;20226;-75
2022/04/16 03:37:06;;;;;;;20.80;9.50;;;;;;;-145.69;100.00;72958.78;5075354;28;20566;-75
2022/04/16 03:39:32;;;;;;;16.90;9.30;;;;;;;-145.69;100.00;72972.72;5075153;28;20203;-75
2022/04/16 03:41:58;;;;;;;15.60;7.77;;;;;;;-145.69;100.00;73008.53;5073961;28;20252;-75
2022/04/16 03:44:25;;;;;;;20.40;9.77;;;;;;;-145.69;100.00;73014.50;5075032;28;20543;-75
2022/04/16 03:46:51;;;;;;;21.83;9.60;;;;;;;-145.69;100.00;72992.59;5074886;28;20229;-75
2022/04/16 03:49:18;;;;;;;20.43;9.57;;;;;;;-145.69;100.00;72992.59;5074817;28;20201;-75
2022/04/16 03:51:44;;;;;;;22.30;10.00;;;;;;;-145.69;100.00;73008.53;5075082;28;20199;-75
2022/04/16 04:02:24;;;;;;;16.30;8.07;;;;;;;-145.69;100.00;72958.78;5074682;28;20206;-75
2022/04/16 04:04:50;;;;;;;15.27;8.30;;;;;;;-145.69;100.00;72964.75;5074502;28;20677;-75
2022/04/16 04:07:17;;;;;;;18.57;8.80;;;;;;;-145.69;100.00;72974.69;5074515;28;20582;-75
2022/04/16 04:09:45;;;;;;;12.83;7.00;;;;;;;-145.69;100.00;72988.63;5074281;28;20214;-74
2022/04/16 04:12:12;;;;;;;15.53;6.90;;;;;;;-145.69;100.00;72986.63;5074593;28;20290;-75
2022/04/16 04:14:39;;;;;;;16.23;7.40;;;;;;;-145.69;100.00;72982.66;5074434;28;20198;-75
2022/04/16 04:17:07;;;;;;;16.97;7.80;;;;;;;-145.69;100.00;72964.75;5074238;28;20242;-75
2022/04/16 04:19:35;;;;;;;13.95;7.80;;;;;;;-145.69;100.00;72974.69;5073167;28;20442;-74
2022/04/16 04:22:01;;;;;;;11.80;6.33;;;;;;;-145.69;100.00;72992.59;5074195;28;20203;-75
2022/04/16 04:24:27;;;;;;;11.93;6.80;;;;;;;-145.69;100.00;72986.63;5074254;28;20203;-75
2022/04/16 04:26:56;;;;;;;14.37;7.00;;;;;;;-145.69;100.00;72982.66;5071745;28;20226;-75
2022/04/16 04:29:22;;;;;;;12.10;6.00;;;;;;;-145.69;100.00;72990.63;5054206;28;20203;-75
2022/04/16 04:31:49;;;;;;;12.27;6.33;;;;;;;-145.69;100.00;72990.63;5054274;28;20212;-75
2022/04/16 04:34:15;;;;;;;13.43;6.93;;;;;;;-145.69;100.00;72984.66;5053978;28;20204;-74
2022/04/16 04:36:42;;;;;;;13.30;6.23;;;;;;;-145.69;100.00;73006.53;5053943;28;20202;-75
2022/04/16 04:39:08;;;;;;;12.90;6.37;;;;;;;-145.69;100.00;73024.47;5053927;28;20214;-75
2022/04/16 04:41:35;;;;;;;11.63;5.80;;;;;;;-145.69;100.00;73032.44;5053983;28;20203;-75
2022/04/16 04:44:03;;;;;;;14.47;6.67;;;;;;;-145.69;100.00;73038.41;5054060;28;20660;-75
2022/04/16 04:46:29;;;;;;;10.00;5.53;;;;;;;-145.69;100.00;73050.34;5053899;28;20226;-75
2022/04/16 04:48:56;;;;;;;11.20;5.97;;;;;;;-145.69;100.00;73058.31;5061068;28;20215;-75
2022/04/16 04:51:22;;;;;;;10.97;5.70;;;;;;;-145.69;100.00;73054.31;5073606;28;20198;-75
2022/04/16 04:53:49;;;;;;;12.60;5.63;;;;;;;-145.69;100.00;73046.34;5073452;28;20271;-75
2022/04/16 04:56:15;;;;;;;11.37;5.67;;;;;;;-145.69;100.00;73066.25;5073820;28;20191;-75
2022/04/16 04:58:41;;;;;;;10.40;5.93;;;;;;;-145.69;100.00;73062.28;5073718;28;20198;-75
2022/04/16 05:01:09;;;;;;;12.30;6.47;;;;;;;-145.69;100.00;73040.38;5073478;28;20206;-74
2022/04/16 05:03:36;;;;;;;11.40;6.47;;;;;;;-145.69;100.00;73054.31;5073494;28;20248;-75
2022/04/16 05:06:02;;;;;;;15.40;6.67;;;;;;;-145.69;100.00;73042.38;5073404;28;20199;-75
2022/04/16 05:08:29;;;;;;;15.13;6.40;;;;;;;-145.69;100.00;73052.34;5073574;28;20238;-75
2022/04/16 05:10:55;;;;;;;10.37;5.70;;;;;;;-145.69;100.00;73072.25;5073450;28;20206;-75
2022/04/16 05:13:21;;;;;;;12.30;6.40;;;;;;;-145.69;100.00;73074.22;5073347;28;20207;-75
2022/04/16 05:15:48;;;;;;;12.10;5.37;;;;;;;-145.69;100.00;73088.16;5073094;28;20723;-75
2022/04/16 05:18:16;;;;;;;11.33;5.70;;;;;;;-145.69;100.00;73086.19;5072928;28;20194;-75
2022/04/16 05:20:42;;;;;;;10.83;5.20;;;;;;;-145.69;100.00;73102.09;5073489;28;20202;-75
2022/04/16 05:23:08;;;;;;;9.23;5.27;;;;;;;-145.69;100.00;73100.09;5073091;28;20203;-75
2022/04/16 05:25:35;;;;;;;8.80;4.73;;;;;;;-145.69;100.00;73102.09;5073043;28;20680;-75
2022/04/16 05:28:01;;;;;;;8.87;5.50;;;;;;;-145.69;100.00;73106.09;5073150;28;20272;-75
2022/04/16 05:30:34;;;;;;;10.73;4.97;;;;;;;-145.69;100.00;73100.09;5073223;28;20233;-75
2022/04/16 05:33:05;;;;;;;11.17;6.00;;;;;;;-145.69;100.00;73104.09;5073017;28;20202;-75
2022/04/16 05:35:33;;;;;;;14.53;5.80;;;;;;;-145.69;100.00;73074.22;5073285;28;20202;-75
2022/04/16 05:38:00;;;;;;;11.33;5.37;;;;;;;-145.69;100.00;73058.31;5073171;28;20643;-75
2022/04/16 05:40:26;;;;;;;8.23;4.67;;;;;;;-145.69;100.00;73042.38;5072952;28;20805;-75
2022/04/16 05:42:53;;;;;;;10.60;4.83;;;;;;;-145.69;100.00;73022.47;5073280;28;20210;-76
2022/04/16 05:45:19;;;;;;;10.20;5.13;;;;;;;-145.69;100.00;73010.53;5072835;28;20206;-75
2022/04/16 05:47:46;;;;;;;10.53;4.83;;;;;;;-145.69;100.00;72970.72;5073126;28;20332;-75
2022/04/16 05:50:14;;;;;;;9.20;5.03;;;;;;;-145.69;100.00;72940.84;5072793;28;20201;-75
2022/04/16 05:52:42;;;;;;;8.03;4.70;;;;;;;-145.69;100.00;72938.88;5073019;28;20222;-75
2022/04/16 05:55:10;;;;;;;8.30;4.30;;;;;;;-145.69;100.00;72942.84;5072771;28;20199;-74
2022/04/16 05:57:36;;;;;;;11.37;4.23;;;;;;;-145.69;100.00;72926.91;5072914;28;20206;-75
2022/04/16 06:00:04;;;;;;;7.47;4.30;;;;;;;-145.69;100.00;72911.00;5072594;28;20198;-76
2022/04/16 06:02:31;;;;;;;7.47;4.00;;;;;;;-145.69;100.00;72895.06;5072911;28;20229;-75
2022/04/16 06:04:58;;;;;;;9.77;4.27;;;;;;;-145.69;100.00;72877.16;5074994;28;20210;-75
2022/04/16 06:07:26;;;;;;;9.57;4.07;;;;;;;-145.69;100.00;72875.16;5076860;28;20681;-75
2022/04/16 06:09:53;;;;;;;7.82;4.45;;;;;;;-145.69;100.00;72849.28;5076358;28;20884;-75
2022/04/16 06:12:20;;;;;;;7.50;4.00;;;;;;;-145.69;100.00;72821.41;5076880;28;20565;-75
2022/04/16 06:14:51;;;;;;;9.60;4.40;;;;;;;-145.69;100.00;72801.50;5076885;28;20273;-75
2022/04/16 06:17:17;;;;;;;7.43;3.70;;;;;;;-145.69;100.00;72785.59;5076978;28;20194;-75
2022/04/16 06:19:44;;;;;;;8.83;4.30;;;;;;;-145.69;100.00;72763.69;5076244;28;20654;-75
2022/04/16 06:22:11;;;;;;;4.87;3.40;;;;;;;-145.69;100.00;72759.72;5076690;28;20248;-75
2022/04/16 06:24:40;;;;;;;5.80;3.60;;;;;;;-145.69;100.00;72739.81;5076655;28;20268;-75
2022/04/16 06:27:08;;;;;;;4.20;2.57;;;;;;;-145.69;100.00;72733.84;5076345;28;20210;-75
2022/04/16 06:29:35;;;;;;;5.13;2.80;;;;;;;-145.69;100.00;72727.88;5076625;28;20202;-75
2022/04/16 06:32:01;;;;;;;5.83;3.27;;;;;;;-145.69;100.00;72719.91;5076666;28;20211;-74
2022/04/16 06:34:27;;;;;;;5.13;3.13;;;;;;;-145.69;100.00;72719.91;5070813;28;20222;-75
2022/04/16 06:36:54;;;;;;;5.57;3.23;;;;;;;-145.69;100.00;72707.97;5056335;28;20204;-75
2022/04/16 06:39:20;;;;;;;6.60;3.43;;;;;;;-145.69;100.00;72696.00;5056175;28;20837;-75
2022/04/16 06:41:47;;;;;;;6.03;3.47;;;;;;;-145.69;97.54;72692.03;5056299;28;20651;-76
2022/04/16 06:44:14;;;;;;;5.63;3.37;;;;;;;-145.69;97.92;72694.03;5056513;28;20234;-75
2022/04/16 06:46:41;;;;;;;5.93;3.20;;;;;;;-145.69;98.98;72662.19;5056351;28;20199;-76
2022/04/16 06:49:07;;;;;;;5.77;3.30;;;;;;;-145.69;99.44;72654.22;5069430;28;20223;-75
2022/04/16 06:51:34;;;;;;;7.60;3.40;;;;;;;-145.69;98.07;72658.19;5076085;28;20221;-75
2022/04/16 06:54:01;;;;;;;6.10;3.60;;;;;;;-145.69;96.73;72658.19;5075813;28;20198;-75
2022/04/16 06:56:27;;;;;;;8.00;3.67;;;;;;;-145.69;100.00;72644.25;5075735;28;20197;-75
2022/04/16 06:58:54;;;;;;;6.87;3.73;;;;;;;-145.69;96.42;72620.38;5076199;28;20195;-75
2022/04/16 07:01:22;;;;;;;6.93;3.77;;;;;;;-145.69;94.21;72636.31;5075917;28;20561;-75
2022/04/16 07:03:48;;;;;;;7.07;4.27;;;;;;;-145.69;95.50;72628.34;5075745;28;20203;-75
2022/04/16 07:06:15;;;;;;;6.47;3.70;;;;;;;-145.69;95.95;72624.34;5075701;28;20199;-75
2022/04/16 07:08:41;;;;;;;7.33;3.73;;;;;;;-145.69;96.28;72594.50;5075591;28;20227;-75
2022/04/16 07:11:08;;;;;;;7.77;3.70;;;;;;;-145.69;93.72;72582.56;5075889;28;20213;-75
2022/04/16 07:13:34;;;;;;;6.37;3.80;;;;;;;-145.69;90.56;72574.59;5075797;28;20205;-75
2022/04/16 07:16:01;;;;;;;9.63;3.90;;;;;;;-145.69;92.29;72570.63;5075092;28;20621;-76
2022/04/16 07:18:29;;;;;;;5.87;3.30;;;;;;;-145.69;91.10;72568.63;5075160;28;20711;-75
2022/04/16 07:20:55;;;;;;;6.63;3.83;;;;;;;-145.69;92.04;72560.66;5075558;28;20195;-75
2022/04/16 07:23:22;;;;;;;5.77;3.50;;;;;;;-145.69;91.18;72540.75;5075324;28;20203;-75
2022/04/16 07:25:48;;;;;;;5.30;3.67;;;;;;;-145.69;90.38;72469.09;5075390;28;20654;-75
2022/04/16 07:28:21;;;;;;;5.00;3.30;;;;;;;-145.69;88.87;72449.19;5075462;28;20237;-75
2022/04/16 07:30:47;;;;;;;4.10;2.83;;;;;;;-145.69;81.85;72417.34;5075429;28;20199;-75
2022/04/16 07:33:14;;;;;;;6.30;3.27;;;;;;;-145.69;82.45;72445.22;5075279;28;20658;-75
2022/04/16 07:35:42;;;;;;;4.40;2.80;;;;;;;-145.69;82.44;72465.13;5075169;28;20662;-76
2022/04/16 07:38:08;;;;;;;5.17;3.00;;;;;;;-145.69;81.72;72479.06;5075119;28;20203;-74
2022/04/16 07:40:35;;;;;;;4.47;2.77;;;;;;;-145.69;83.85;72502.94;5075138;28;20207;-76
2022/04/16 07:43:02;;;;;;;4.27;2.53;;;;;;;-145.69;82.08;72500.94;5075308;28;20289;-75
2022/04/16 07:45:29;;;;;;;3.93;2.20;;;;;;;-145.69;78.67;72469.09;5075098;28;20661;-75
2022/04/16 07:47:55;;;;;;;3.37;2.07;;;;;;;-145.69;77.97;72443.22;5074956;28;20218;-76
2022/04/16 07:50:22;;;;;;;3.03;2.00;;;;;;;-145.69;78.32;72447.22;5074904;28;20689;-76
2022/04/16 07:52:50;;;;;;;5.60;2.97;;;;;;;-145.69;78.55;72481.03;5075377;28;20221;-75
2022/04/16 07:55:17;;;;;;;4.47;2.10;;;;;;;-145.69;77.25;72453.19;5075297;28;20252;-76
2022/04/16 07:57:43;;;;;;;3.37;2.03;;;;;;;-145.69;74.96;72483.03;5073956;28;20268;-76
2022/04/16 08:00:11;;;;;;;4.20;2.00;;;;;;;-145.69;79.60;72494.97;5074961;28;20222;-76
2022/04/16 08:02:38;;;;;;;5.77;2.60;;;;;;;-145.69;78.20;72526.81;5074859;28;20198;-76
2022/04/16 08:05:05;;;;;;;3.03;2.10;;;;;;;-145.69;78.00;72536.78;5074266;28;20237;-77
2022/04/16 08:07:32;;;;;;;2.97;2.10;;;;;;;-145.69;77.84;72540.75;5056832;28;20284;-76
2022/04/16 08:10:00;;;;;;;2.93;2.13;;;;;;;-145.69;80.58;72518.88;5054479;28;20235;-74
2022/04/16 08:12:27;;;;;;;4.80;2.43;;;;;;;-145.69;82.24;72512.91;5054515;28;20199;-76
2022/04/16 08:14:53;;;;;;;2.50;2.03;;;;;;;-145.69;79.98;72516.88;5055545;28;20206;-76
2022/04/16 08:17:20;;;;;;;3.10;2.10;;;;;;;-145.69;80.03;72487.00;5073744;28;20724;-77
2022/04/16 08:19:46;;;;;;;3.23;2.20;;;;;;;-145.69;80.03;72445.22;5073983;28;20676;-76
2022/04/16 08:22:17;;;;;;;3.03;1.90;;;;;;;-145.69;72.83;72465.13;5074526;28;20203;-76
2022/04/16 08:24:53;;;;;;;2.10;1.83;;;;;;;-145.69;74.31;72496.97;5074135;28;20661;-75
2022/04/16 08:27:22;;;;;;;3.60;1.63;;;;;;;-145.69;74.72;72477.06;5073674;28;20281;-76
2022/04/16 08:29:48;;;;;;;3.43;2.20;;;;;;;-145.69;73.08;72455.16;5073269;28;20265;-74
2022/04/16 08:32:14;;;;;;;3.43;1.90;;;;;;;-145.69;70.55;72377.53;5074012;28;20205;-75
2022/04/16 08:34:41;;;;;;;3.87;2.10;;;;;;;-145.69;67.68;72325.81;5073571;28;20217;-75
2022/04/16 08:37:08;;;;;;;4.27;1.73;;;;;;;-145.69;68.39;72359.63;5074118;28;20202;-75
2022/04/16 08:39:34;;;;;;;2.87;1.87;;;;;;;-145.69;67.10;72341.72;5062151;28;20203;-76
2022/04/16 08:42:01;;;;;;;2.50;1.37;;;;;;;-145.69;71.47;72305.91;5054051;28;20226;-76
2022/04/16 08:44:29;;;;;;;3.83;1.30;;;;;;;-145.69;63.55;72252.16;5053875;28;20211;-77
2022/04/16 08:46:56;;;;;;;1.90;1.40;;;;;;;-145.69;62.29;72220.31;5053790;28;20211;-76
2022/04/16 08:49:25;;;;;;;2.07;1.60;;;;;;;-145.69;65.32;72138.72;5053574;28;20702;-76
2022/04/16 08:51:51;;;;;;;3.50;1.30;;;;;;;-145.69;59.41;72116.81;5053693;28;20206;-77
2022/04/16 08:54:18;;;;;;;2.23;1.50;;;;;;;-145.69;58.72;72208.38;5053681;28;20195;-76
2022/04/16 08:56:44;;;;;;;2.53;1.53;;;;;;;-145.69;57.60;72234.25;5052879;28;20341;-76
2022/04/16 08:59:11;;;;;;;2.40;1.53;;;;;;;-145.69;58.23;72258.13;5053347;28;20207;-76
2022/04/16 09:01:38;;;;;;;3.80;2.30;;;;;;;-145.69;64.56;72258.13;5057009;28;20198;-76
2022/04/16 09:04:05;;;;;;;4.70;2.60;;;;;;;-145.69;71.16;72335.75;5073492;28;20203;-76
2022/04/16 09:06:31;;;;;;;5.03;2.60;;;;;;;-145.69;71.55;72337.75;5073438;28;20203;-76
2022/04/16 09:09:09;;;;;;;6.17;2.43;;;;;;;-145.69;69.21;72333.75;5073252;28;20234;-76
2022/04/16 09:11:36;;;;;;;3.53;2.23;;;;;;;-145.69;69.01;72343.72;5073212;28;20562;-76
2022/04/16 09:14:03;;;;;;;3.67;2.00;;;;;;;-145.69;65.33;72317.84;5072854;28;20198;-76
2022/04/16 09:16:32;;;;;;;2.73;2.07;;;;;;;-145.69;65.00;72307.88;5072079;28;20234;-76
2022/04/16 09:19:00;;;;;;;6.47;2.73;;;;;;;-145.69;63.94;72361.63;5073278;28;20237;-76
2022/04/16 09:21:29;;;;;;;4.87;2.77;;;;;;;-145.69;65.86;72377.53;5073070;28;20661;-80
2022/04/16 09:23:58;;;;;;;3.37;2.27;;;;;;;-145.69;65.35;72397.44;5073140;28;20293;-77
2022/04/16 09:26:26;;;;;;;3.63;2.43;;;;;;;-145.69;67.73;72407.41;5072747;28;20199;-76
2022/04/16 09:28:53;;;;;;;4.10;2.70;;;;;;;-145.69;67.54;72401.44;5073082;28;20322;-75
2022/04/16 09:31:24;;;;;;;7.37;2.60;;;;;;;-145.69;68.28;72377.53;5072968;28;20644;-76
2022/04/16 09:33:50;;;;;;;5.17;2.53;;;;;;;-145.69;67.40;72413.38;5073249;28;20211;-76
2022/04/16 09:36:25;;;;;;;3.97;2.27;;;;;;;-145.69;70.58;72405.41;5073244;28;20199;-77
2022/04/16 09:38:59;;;;;;;4.63;2.77;;;;;;;-145.69;71.55;72429.28;5073376;28;20703;-76
2022/04/16 09:41:31;;;;;;;4.37;2.83;;;;;;;-145.69;76.36;72443.22;5073176;28;20209;-76
2022/04/16 09:43:57;;;;;;;6.23;3.77;;;;;;;-145.69;79.88;72429.28;5072774;28;20229;-76
2022/04/16 09:46:27;;;;;;;7.03;3.87;;;;;;;-145.69;78.88;72437.25;5072974;28;20207;-76
2022/04/16 09:48:59;;;;;;;7.87;3.73;;;;;;;-145.69;82.99;72461.13;5072919;28;20234;-76
2022/04/16 09:51:27;;;;;;;5.70;3.57;;;;;;;-145.69;84.20;72433.28;5072690;28;20233;-76
2022/04/16 09:53:55;;;;;;;5.10;3.17;;;;;;;-145.69;76.71;72494.97;5072954;28;20210;-76
2022/04/16 09:56:24;;;;;;;5.93;2.97;;;;;;;-145.69;73.96;72451.19;5072822;28;20209;-76
2022/04/16 09:58:53;;;;;;;5.10;2.93;;;;;;;-145.69;72.98;72421.34;5072866;28;20209;-76
2022/04/16 10:01:21;;;;;;;4.57;2.50;;;;;;;-145.69;68.69;72365.59;5072521;28;20198;-76
2022/04/16 10:03:50;;;;;;;6.13;2.73;;;;;;;-145.69;67.68;72331.78;5072538;28;20222;-76
2022/04/16 10:06:17;;;;;;;3.50;2.37;;;;;;;-145.69;68.12;72361.63;5072680;28;20202;-76
2022/04/16 10:08:47;;;;;;;3.83;2.57;;;;;;;-145.69;68.08;72325.81;5072610;28;20231;-76
2022/04/16 10:11:20;;;;;;;4.77;2.80;;;;;;;-145.69;67.10;72343.72;5072468;28;20213;-76
2022/04/16 10:13:57;;;;;;;5.70;2.97;;;;;;;-145.69;69.56;72341.72;5071885;28;20204;-76
2022/04/16 10:16:31;;;;;;;5.10;2.37;;;;;;;-145.69;71.12;72345.69;5072334;28;20235;-76
2022/04/16 10:18:57;;;;;;;4.37;2.50;;;;;;;-145.69;67.97;72289.97;5072745;28;20287;-76
2022/04/16 10:21:24;;;;;;;3.70;2.20;;;;;;;-145.69;66.03;72313.84;5072455;28;20248;-76
2022/04/16 10:24:01;;;;;;;3.60;2.63;;;;;;;-145.69;69.17;72365.59;5072339;28;20201;-75
2022/04/16 10:26:38;;;;;;;6.67;2.50;;;;;;;-145.69;68.04;72343.72;5072557;28;20256;-76
2022/04/16 10:29:04;;;;;;;4.20;2.30;;;;;;;-145.69;70.33;72359.63;5072499;28;20325;-76
2022/04/16 10:31:33;;;;;;;5.00;2.53;;;;;;;-145.69;65.70;72319.81;5072045;28;20194;-76
2022/04/16 10:34:01;;;;;;;3.87;2.50;;;;;;;-145.69;67.15;72347.69;5072402;28;20206;-76
2022/04/16 10:36:32;;;;;;;4.50;2.83;;;;;;;-145.69;70.36;72393.47;5072340;28;20199;-75
2022/04/16 10:39:00;;;;;;;6.10;3.00;;;;;;;-145.69;71.94;72425.31;5072499;28;20203;-75
2022/04/16 10:41:28;;;;;;;4.73;2.90;;;;;;;-145.69;71.56;72425.31;5072516;28;20206;-76
2022/04/16 10:43:59;;;;;;;5.80;3.53;;;;;;;-145.69;75.63;72387.50;5055397;28;20203;-76
2022/04/16 10:46:39;;;;;;;5.10;3.27;;;;;;;-145.69;71.37;72365.59;5052302;28;20203;-75
2022/04/16 10:49:07;;;;;;;4.83;2.90;;;;;;;-145.69;71.16;72359.63;5052258;28;20226;-75
2022/04/16 10:51:35;;;;;;;5.43;3.10;;;;;;;-145.69;66.85;72317.84;5054946;28;20196;-76
2022/04/16 10:54:10;;;;;;;6.23;2.73;;;;;;;-145.69;65.85;72228.28;5056263;28;20231;-75
2022/04/16 10:56:40;;;;;;;5.30;3.07;;;;;;;-145.69;65.38;72234.25;5056049;28;20203;-75
2022/04/16 10:59:07;;;;;;;4.90;2.47;;;;;;;-145.69;63.56;72214.34;5056057;28;20211;-75
2022/04/16 11:01:34;;;;;;;5.30;2.43;;;;;;;-145.69;62.76;72238.22;5060439;28;20222;-75
2022/04/16 11:04:12;;;;;;;3.37;2.40;;;;;;;-145.69;59.85;72158.63;5075783;28;20286;-76
2022/04/16 11:06:43;;;;;;;5.87;2.37;;;;;;;-145.69;62.84;72172.53;5075742;28;20646;-75
2022/04/16 11:09:13;;;;;;;3.85;2.00;;;;;;;-145.69;63.79;72218.31;5075796;28;20227;-76
2022/04/16 11:11:41;;;;;;;3.70;2.40;;;;;;;-145.69;63.69;72282.00;5075729;28;20709;-76
2022/04/16 11:14:09;;;;;;;5.10;2.63;;;;;;;-145.69;65.93;72341.72;5075846;28;20646;-76
2022/04/16 11:16:42;;;;;;;3.27;2.13;;;;;;;-145.69;66.43;72353.66;5075511;28;20231;-75
2022/04/16 11:19:12;;;;;;;4.67;2.70;;;;;;;-145.69;66.44;72353.66;5075429;28;20276;-75
2022/04/16 11:21:39;;;;;;;3.13;1.93;;;;;;;-145.69;63.65;72301.91;5075854;28;20238;-75
2022/04/16 11:24:06;;;;;;;3.97;2.27;;;;;;;-145.69;67.55;72246.19;5075576;28;20194;-75
2022/04/16 11:34:51;;;;;;;3.25;2.10;;;;;;;-145.69;61.12;72110.84;5075365;28;20198;-76